Humidity-temperature Sensor

Selected Measurement Type: Relative Humidity

 
Relative Humidity [%]     6 entries per hour
Showing data from 5/30/2023 (00:00:00 Z) to 5/27/2023 (00:01:00 Z)
Previous Next [ Day | 3-Days | 7-Days ]
First Last
Prev [ Day | 3-Days | 7-Days ] Next
First Last

Start Time:     :
End Time:     :     
Time (in GMT) :00 :50 :40 :30 :20 :10
Previous Next [ Day | 3-Days | 7-Days ]
First Last
Prev [ Day | 3-Days | 7-Days ] Next
First Last


123 => good data
MM => data is determined as missing
-- => data not received/configured
Back to Top Back to Top
5/30/2023 00:00 to 23:10 87.72 87.90 87.86 87.11 88.09 89.43
5/29/2023 23:00 to 22:10 86.88 86.74 87.42 86.26 86.15 85.65
5/29/2023 22:00 to 21:10 85.75 85.36 85.48 85.52 86.09 85.86
5/29/2023 21:00 to 20:10 85.52 84.52 86.05 85.52 85.36 85.86
5/29/2023 20:00 to 19:10 84.94 85.57 84.02 85.94 87.80 87.15
5/29/2023 19:00 to 18:10 88.09 87.68 87.30 88.03 86.90 87.47
5/29/2023 18:00 to 17:10 86.44 86.40 86.69 87.09 87.53 86.97
5/29/2023 17:00 to 16:10 87.05 86.34 86.84 87.20 86.63 88.84
5/29/2023 16:00 to 15:10 91.08 93.60 93.71 91.41 90.49 89.32
5/29/2023 15:00 to 14:10 86.76 86.51 85.55 85.86 85.92 86.94
5/29/2023 14:00 to 13:10 87.40 87.90 88.09 88.57 92.06 92.69
5/29/2023 13:00 to 12:10 92.54 93.52 91.47 89.43 88.53 88.13
5/29/2023 12:00 to 11:10 87.90 89.20 90.12 90.56 90.16 89.24
5/29/2023 11:00 to 10:10 87.68 86.78 86.46 86.40 85.94 88.34
5/29/2023 10:00 to 9:10 87.90 87.55 89.05 89.22 89.18 86.71
5/29/2023 09:00 to 8:10 89.41 87.84 88.07 88.26 88.61 88.78
5/29/2023 08:00 to 7:10 88.76 88.49 87.97 90.24 89.66 88.78
5/29/2023 07:00 to 6:10 89.85 89.26 88.49 88.30 88.82 88.95
5/29/2023 06:00 to 5:10 88.32 87.99 87.26 86.97 87.88 87.82
5/29/2023 05:00 to 4:10 87.11 87.47 87.80 87.36 86.94 87.63
5/29/2023 04:00 to 3:10 87.40 85.78 87.22 87.32 86.63 86.94
5/29/2023 03:00 to 2:10 86.15 86.40 87.09 85.48 85.78 85.40
5/29/2023 02:00 to 1:10 86.49 86.86 87.72 86.90 87.36 87.45
5/29/2023 01:00 to 0:10 87.82 87.95 87.90 87.99 88.07 87.59
5/29/2023 00:00 to 23:10 86.38 86.88 85.67 85.61 86.32 85.84
5/28/2023 23:00 to 22:10 86.38 86.59 85.96 86.07 86.36 87.07
5/28/2023 22:00 to 21:10 87.09 87.36 86.97 87.59 86.07 86.28
5/28/2023 21:00 to 20:10 85.38 85.71 86.36 85.63 87.47 87.68
5/28/2023 20:00 to 19:10 88.30 88.68 87.05 88.32 86.84 88.32
5/28/2023 19:00 to 18:10 90.10 90.39 90.05 87.42 86.80 89.01
5/28/2023 18:00 to 17:10 87.76 88.36 87.74 87.22 86.84 87.74
5/28/2023 17:00 to 16:10 87.11 87.88 88.36 87.90 87.32 87.40
5/28/2023 16:00 to 15:10 88.05 88.03 88.66 88.95 89.12 89.55
5/28/2023 15:00 to 14:10 90.14 88.72 88.91 88.13 89.37 89.93
5/28/2023 14:00 to 13:10 89.91 88.13 88.11 88.97 89.76 89.43
5/28/2023 13:00 to 12:10 89.12 89.28 89.22 88.76 88.01 89.53
5/28/2023 12:00 to 11:10 89.37 90.39 89.53 89.72 90.22 90.43
5/28/2023 11:00 to 10:10 89.35 88.78 88.32 89.01 89.85 89.97
5/28/2023 10:00 to 9:10 90.56 89.87 88.47 88.95 88.95 89.32
5/28/2023 09:00 to 8:10 88.70 88.36 88.93 89.41 89.14 87.82
5/28/2023 08:00 to 7:10 89.05 88.66 88.03 89.14 90.10 90.72
5/28/2023 07:00 to 6:10 91.64 90.22 90.24 89.09 89.16 89.95
5/28/2023 06:00 to 5:10 89.83 89.55 86.11 84.21 85.27 86.46
5/28/2023 05:00 to 4:10 85.61 87.78 88.97 90.08 91.79 93.06
5/28/2023 04:00 to 3:10 92.52 92.21 92.73 92.39 92.64 92.91
5/28/2023 03:00 to 2:10 92.75 92.94 93.27 92.08 93.40 93.48
5/28/2023 02:00 to 1:10 92.62 92.56 94.52 95.23 95.50 95.17
5/28/2023 01:00 to 0:10 95.50 96.76 97.53 98.76 98.80 99.26
5/28/2023 00:00 to 23:10 99.05 98.97 98.22 96.38 92.35 91.77
5/27/2023 23:00 to 22:10 89.93 88.84 91.20 91.39 91.20 89.95
5/27/2023 22:00 to 21:10 89.32 88.53 89.18 89.62 89.66 89.97
5/27/2023 21:00 to 20:10 90.37 90.49 89.99 89.43 90.14 89.91
5/27/2023 20:00 to 19:10 89.91 91.91 92.91 92.79 92.33 92.79
5/27/2023 19:00 to 18:10 92.43 92.10 92.89 93.23 92.81 89.55
5/27/2023 18:00 to 17:10 89.97 90.56 90.93 89.99 91.22 90.81
5/27/2023 17:00 to 16:10 90.81 92.94 93.79 93.83 94.92 96.13
5/27/2023 16:00 to 15:10 96.21 95.75 95.67 96.59 96.48 96.51
5/27/2023 15:00 to 14:10 96.55 96.48 95.92 94.08 94.84 94.23
5/27/2023 14:00 to 13:10 93.54 94.27 94.44 95.98 97.40 98.07
5/27/2023 13:00 to 12:10 99.28 99.03 98.59 99.30 99.37 98.26
5/27/2023 12:00 to 11:10 98.30 98.51 99.05 98.86 97.59 94.19
5/27/2023 11:00 to 10:10 93.65 95.59 95.88 94.84 94.36 94.19
5/27/2023 10:00 to 9:10 96.90 98.43 98.68 95.36 90.62 90.99
5/27/2023 09:00 to 8:10 90.79 91.45 91.56 93.02 93.81 94.75
5/27/2023 08:00 to 7:10 92.27 92.39 92.25 94.04 90.70 88.64
5/27/2023 07:00 to 6:10 89.37 89.43 89.18 88.45 88.47 87.49
5/27/2023 06:00 to 5:10 88.47 88.97 89.26 89.74 89.97 91.18
5/27/2023 05:00 to 4:10 94.10 95.69 89.97 91.41 93.56 92.60
5/27/2023 04:00 to 3:10 86.76 86.42 86.26 86.01 86.65 87.63
5/27/2023 03:00 to 2:10 86.07 86.46 85.44 85.15 86.32 86.36
5/27/2023 02:00 to 1:10 86.53 84.00 84.96 83.37 84.61 83.33
5/27/2023 01:00 to 0:10 83.58 82.33 82.31 81.64 81.83 84.21